createdAt,value
2023-02-15T00:02:02.898Z,31.83
2023-02-15T00:04:47.318Z,26.33
2023-02-15T00:07:16.777Z,29.25
2023-02-15T00:09:45.787Z,30.35
2023-02-15T00:12:13.064Z,30.35
2023-02-15T00:14:40.355Z,29.92
2023-02-15T00:17:07.562Z,29.83
2023-02-15T00:19:35.021Z,30.80
2023-02-15T00:22:02.365Z,28.98
2023-02-15T00:24:29.641Z,28.88
2023-02-15T00:26:56.856Z,27.27
2023-02-15T00:29:24.338Z,27.35
2023-02-15T00:31:52.083Z,29.30
2023-02-15T00:34:23.173Z,27.75
2023-02-15T00:36:51.201Z,28.67
2023-02-15T00:39:19.392Z,28.42
2023-02-15T00:41:47.713Z,28.02
2023-02-15T00:44:15.235Z,27.02
2023-02-15T00:46:42.689Z,29.27
2023-02-15T00:49:11.085Z,27.40
2023-02-15T00:51:38.900Z,26.10
2023-02-15T00:54:06.598Z,26.48
2023-02-15T00:56:33.844Z,24.50
2023-02-15T00:59:01.196Z,26.52
2023-02-15T01:01:28.486Z,26.15
2023-02-15T01:03:55.714Z,26.75
2023-02-15T01:06:23.159Z,24.00
2023-02-15T01:08:50.467Z,25.50
2023-02-15T01:11:23.352Z,26.58
2023-02-15T01:13:54.042Z,26.60
2023-02-15T01:16:22.265Z,24.77
2023-02-15T01:18:49.680Z,25.63
2023-02-15T01:21:19.911Z,24.42
2023-02-15T01:23:47.321Z,26.08
2023-02-15T01:26:15.692Z,25.90
2023-02-15T01:28:44.745Z,26.90
2023-02-15T01:31:15.200Z,27.45
2023-02-15T01:33:43.008Z,30.20
2023-02-15T01:36:11.028Z,26.45
2023-02-15T01:38:41.062Z,26.20
2023-02-15T01:41:28.234Z,25.45
2023-02-15T01:44:01.174Z,25.55
2023-02-15T01:46:51.678Z,30.65
2023-02-15T01:49:24.856Z,30.08
2023-02-15T01:51:53.970Z,29.10
2023-02-15T01:54:30.183Z,28.40
2023-02-15T01:57:03.491Z,29.90
2023-02-15T01:59:33.513Z,28.27
2023-02-15T02:02:02.100Z,29.35
2023-02-15T02:04:46.766Z,27.42
2023-02-15T02:07:16.670Z,29.85
2023-02-15T02:09:45.566Z,26.40
2023-02-15T02:12:13.488Z,29.02
2023-02-15T02:14:41.751Z,28.15
2023-02-15T02:17:17.615Z,27.98
2023-02-15T02:20:16.424Z,28.75
2023-02-15T02:25:57.572Z,32.83
2023-02-15T02:28:52.775Z,27.95
2023-02-15T02:31:50.286Z,27.58
2023-02-15T02:34:17.546Z,28.40
2023-02-15T02:36:53.696Z,27.92
2023-02-15T02:39:33.213Z,29.00
2023-02-15T02:42:30.946Z,30.40
2023-02-15T02:45:05.801Z,30.60
2023-02-15T02:47:45.825Z,29.88
2023-02-15T02:50:19.721Z,30.38
2023-02-15T02:52:49.085Z,29.40
2023-02-15T02:55:31.649Z,30.50
2023-02-15T02:58:05.578Z,32.30
2023-02-15T03:00:40.814Z,30.05
2023-02-15T03:03:13.561Z,31.20
2023-02-15T03:05:45.596Z,29.25
2023-02-15T03:08:22.644Z,32.00
2023-02-15T03:10:54.324Z,28.10
2023-02-15T03:13:22.650Z,29.38
2023-02-15T03:16:09.728Z,27.55
2023-02-15T03:18:45.189Z,28.80
2023-02-15T03:21:23.258Z,27.10
2023-02-15T03:24:22.098Z,28.10
2023-02-15T03:26:52.824Z,27.30
2023-02-15T03:29:23.251Z,28.88
2023-02-15T03:31:58.075Z,27.95
2023-02-15T03:34:25.861Z,28.60
2023-02-15T03:37:26.250Z,29.33
2023-02-15T03:40:19.068Z,28.65
2023-02-15T03:42:49.351Z,28.23
2023-02-15T03:45:22.442Z,31.98
2023-02-15T03:47:52.585Z,28.63
2023-02-15T03:50:48.351Z,26.15
2023-02-15T03:53:18.908Z,28.80
2023-02-15T03:55:54.230Z,27.42
2023-02-15T03:58:40.040Z,27.00
2023-02-15T04:01:42.036Z,26.98
2023-02-15T04:04:24.664Z,29.13
2023-02-15T04:06:52.870Z,26.00
2023-02-15T04:09:38.729Z,25.50
2023-02-15T04:12:06.068Z,27.73
2023-02-15T04:14:51.960Z,25.15
2023-02-15T04:17:19.257Z,22.30
2023-02-15T04:20:04.762Z,21.30
2023-02-15T04:22:50.496Z,23.77
2023-02-15T04:25:17.804Z,24.20
2023-02-15T04:27:55.586Z,20.85
2023-02-15T04:30:25.468Z,23.58
2023-02-15T04:32:52.965Z,21.65
2023-02-15T04:35:20.239Z,22.50
2023-02-15T04:37:47.515Z,22.20
2023-02-15T04:40:18.728Z,20.70
2023-02-15T04:42:50.102Z,20.00
2023-02-15T04:45:18.167Z,14.65
2023-02-15T04:47:45.978Z,20.95
2023-02-15T04:50:13.348Z,24.48
2023-02-15T04:52:40.654Z,19.30
2023-02-15T04:55:08.321Z,22.25
2023-02-15T04:57:35.741Z,20.40
2023-02-15T05:00:03.720Z,21.13
2023-02-15T05:02:31.453Z,21.70
2023-02-15T05:04:58.826Z,23.75
2023-02-15T05:07:26.108Z,20.63
2023-02-15T05:09:53.309Z,22.73
2023-02-15T05:12:20.553Z,21.90
2023-02-15T05:14:47.802Z,22.88
2023-02-15T05:17:15.006Z,23.35
2023-02-15T05:19:42.234Z,22.17
2023-02-15T05:22:09.463Z,25.00
2023-02-15T05:24:55.024Z,26.13
2023-02-15T05:27:40.600Z,24.80
2023-02-15T05:30:12.796Z,24.60
2023-02-15T05:32:40.578Z,26.92
2023-02-15T05:35:08.812Z,26.02
2023-02-15T05:37:36.092Z,27.85
2023-02-15T05:40:03.632Z,26.92
2023-02-15T05:42:30.815Z,26.95
2023-02-15T05:44:58.037Z,29.35
2023-02-15T05:47:25.250Z,27.80
2023-02-15T05:49:52.593Z,31.27
2023-02-15T05:52:19.909Z,30.15
2023-02-15T05:54:47.156Z,27.85
2023-02-15T05:57:14.439Z,29.63
2023-02-15T05:59:41.643Z,30.30
2023-02-15T06:02:08.964Z,30.45
2023-02-15T06:04:36.221Z,32.53
2023-02-15T06:07:03.523Z,27.73
2023-02-15T06:09:30.847Z,29.52
2023-02-15T06:11:58.208Z,31.23
2023-02-15T06:14:25.468Z,28.73
2023-02-15T06:16:52.675Z,29.90
2023-02-15T06:19:20.138Z,32.90
2023-02-15T06:21:47.449Z,30.80
2023-02-15T06:24:14.662Z,30.00
2023-02-15T06:26:42.065Z,27.73
2023-02-15T06:29:09.311Z,30.45
2023-02-15T06:31:36.664Z,29.40
2023-02-15T06:34:03.969Z,30.95
2023-02-15T06:36:32.721Z,28.55
2023-02-15T06:39:00.155Z,31.67
2023-02-15T06:41:27.611Z,30.40
2023-02-15T06:43:54.886Z,27.35
2023-02-15T06:46:22.206Z,28.67
2023-02-15T06:48:49.526Z,29.58
2023-02-15T06:51:16.818Z,32.53
2023-02-15T06:53:44.083Z,28.27
2023-02-15T06:56:12.322Z,27.33
2023-02-15T06:58:43.611Z,29.05
2023-02-15T07:01:10.943Z,29.05
2023-02-15T07:03:38.196Z,26.75
2023-02-15T07:06:09.350Z,27.15
2023-02-15T07:08:37.874Z,27.92
2023-02-15T07:11:24.399Z,28.83
2023-02-15T07:13:53.495Z,27.83
2023-02-15T07:16:21.045Z,27.35
2023-02-15T07:18:48.400Z,27.73
2023-02-15T07:21:15.651Z,27.58
2023-02-15T07:23:42.972Z,25.35
2023-02-15T07:26:10.305Z,25.70
2023-02-15T07:28:37.727Z,23.23
2023-02-15T07:31:05.977Z,27.38
2023-02-15T07:33:34.320Z,26.95
2023-02-15T07:36:04.350Z,30.23
2023-02-15T07:38:36.683Z,27.58
2023-02-15T07:41:09.701Z,26.70
2023-02-15T07:43:39.519Z,31.73
2023-02-15T07:46:13.253Z,26.92
2023-02-15T07:48:43.127Z,26.75
2023-02-15T07:51:12.406Z,27.77
2023-02-15T07:53:40.372Z,26.83
2023-02-15T07:56:13.414Z,25.83
2023-02-15T07:58:52.730Z,26.48
2023-02-15T08:01:21.211Z,25.90
2023-02-15T08:03:48.932Z,30.35
2023-02-15T08:06:16.275Z,26.45
2023-02-15T08:08:43.871Z,27.42
2023-02-15T08:11:26.919Z,25.02
2023-02-15T08:13:56.477Z,27.23
2023-02-15T08:16:28.750Z,26.83
2023-02-15T08:18:57.502Z,25.05
2023-02-15T08:21:26.949Z,31.60
2023-02-15T08:23:54.689Z,27.13
2023-02-15T08:26:23.456Z,31.05
2023-02-15T08:28:52.267Z,35.88
2023-02-15T08:31:20.041Z,24.92
2023-02-15T08:33:48.683Z,26.33
2023-02-15T08:36:19.551Z,30.73
2023-02-15T08:38:47.320Z,29.48
2023-02-15T08:41:18.254Z,26.77
2023-02-15T08:43:46.635Z,24.83
2023-02-15T08:46:17.960Z,27.95
2023-02-15T08:48:45.686Z,28.60
2023-02-15T08:51:16.081Z,26.42
2023-02-15T08:53:46.613Z,25.92
2023-02-15T08:56:14.005Z,33.80
2023-02-15T08:58:41.412Z,28.23
2023-02-15T09:01:13.148Z,30.92
2023-02-15T09:03:40.793Z,29.73
2023-02-15T09:06:09.213Z,29.15
2023-02-15T09:08:36.804Z,33.72
2023-02-15T09:11:08.116Z,29.27
2023-02-15T09:13:35.838Z,31.92
2023-02-15T09:16:08.095Z,25.17
2023-02-15T09:18:38.482Z,27.65
2023-02-15T09:21:17.660Z,23.48
2023-02-15T09:23:46.650Z,27.00
2023-02-15T09:26:22.912Z,23.20
2023-02-15T09:28:54.156Z,23.15
2023-02-15T09:31:24.148Z,21.70
2023-02-15T09:33:51.788Z,25.17
2023-02-15T09:36:21.160Z,25.30
2023-02-15T09:38:55.960Z,24.30
2023-02-15T09:41:52.470Z,27.10
2023-02-15T09:44:43.560Z,28.35
2023-02-15T09:47:39.925Z,26.42
2023-02-15T09:50:25.844Z,23.88
2023-02-15T09:53:30.776Z,24.55
2023-02-15T09:55:57.990Z,23.75
2023-02-15T09:58:53.903Z,22.13
2023-02-15T10:01:24.024Z,26.85
2023-02-15T10:03:54.532Z,20.98
2023-02-15T10:06:45.404Z,23.75
2023-02-15T10:09:15.339Z,24.38
2023-02-15T10:12:08.995Z,24.63
2023-02-15T10:15:10.280Z,20.90
2023-02-15T10:17:56.395Z,22.00
2023-02-15T10:20:30.173Z,24.27
2023-02-15T10:23:35.493Z,23.95
2023-02-15T10:26:15.064Z,26.13
2023-02-15T10:28:57.322Z,25.60
2023-02-15T10:34:09.665Z,23.15
2023-02-15T10:36:56.337Z,26.75
2023-02-15T10:39:44.728Z,22.52
2023-02-15T10:42:35.562Z,24.90
2023-02-15T10:45:11.533Z,21.77
2023-02-15T10:48:05.934Z,22.13
2023-02-15T10:50:36.221Z,23.77
2023-02-15T10:53:22.075Z,21.80
2023-02-15T10:56:04.942Z,22.20
2023-02-15T10:58:45.771Z,22.65
2023-02-15T11:01:26.409Z,21.88
2023-02-15T11:04:17.369Z,21.92
2023-02-15T11:06:52.354Z,18.73
2023-02-15T11:09:23.446Z,21.58
2023-02-15T11:11:56.761Z,23.47
2023-02-15T11:14:51.325Z,20.73
2023-02-15T11:17:40.689Z,18.23
2023-02-15T11:20:20.277Z,20.02
2023-02-15T11:22:54.389Z,18.70
2023-02-15T11:25:26.990Z,18.00
2023-02-15T11:27:56.453Z,18.35
2023-02-15T11:30:28.899Z,17.10
2023-02-15T11:33:03.058Z,19.88
2023-02-15T11:35:42.871Z,19.60
2023-02-15T11:38:27.951Z,19.35
2023-02-15T11:40:59.968Z,18.60
2023-02-15T11:46:13.714Z,19.55
2023-02-15T11:48:41.726Z,19.42
2023-02-15T11:51:23.724Z,21.60
2023-02-15T11:56:25.116Z,21.17
2023-02-15T11:59:08.492Z,19.95
2023-02-15T12:01:46.778Z,21.67
2023-02-15T12:04:42.646Z,20.42
2023-02-15T12:07:26.740Z,18.30
2023-02-15T12:10:18.343Z,19.50
2023-02-15T12:12:45.694Z,18.08
2023-02-15T12:15:14.869Z,20.65
2023-02-15T12:17:51.461Z,20.15
2023-02-15T12:20:18.584Z,20.10
2023-02-15T12:23:04.251Z,20.70
2023-02-15T12:25:37.964Z,22.33
2023-02-15T12:28:22.426Z,19.40
2023-02-15T12:30:50.035Z,22.67
2023-02-15T12:33:25.064Z,22.58
2023-02-15T12:36:13.781Z,24.45
2023-02-15T12:38:41.129Z,18.15
2023-02-15T12:41:25.837Z,19.60
2023-02-15T12:44:07.225Z,18.63
2023-02-15T12:46:38.431Z,20.33
2023-02-15T12:49:21.330Z,16.53
2023-02-15T12:51:52.379Z,14.88
2023-02-15T12:54:39.762Z,16.65
2023-02-15T12:57:29.340Z,21.25
2023-02-15T13:00:06.859Z,16.35
2023-02-15T13:02:44.733Z,17.58
2023-02-15T13:05:19.584Z,18.70
2023-02-15T13:07:54.439Z,17.25
2023-02-15T13:10:26.652Z,16.52
2023-02-15T13:12:55.381Z,18.60
2023-02-15T13:15:26.977Z,18.40
2023-02-15T13:20:24.948Z,20.90
2023-02-15T13:22:58.064Z,17.15
2023-02-15T13:25:32.188Z,19.30
2023-02-15T13:28:04.406Z,17.45
2023-02-15T13:30:36.294Z,20.00
2023-02-15T13:33:27.365Z,19.25
2023-02-15T13:36:11.198Z,17.95
2023-02-15T13:39:12.123Z,18.27
2023-02-15T13:42:06.136Z,19.40
2023-02-15T13:45:02.942Z,21.20
2023-02-15T13:47:50.084Z,20.83
2023-02-15T13:50:48.157Z,17.90
2023-02-15T13:53:59.801Z,19.67
2023-02-15T13:56:29.985Z,21.80
2023-02-15T13:59:22.658Z,21.70
2023-02-15T14:01:55.674Z,21.23
2023-02-15T14:04:51.782Z,21.55
2023-02-15T14:07:26.557Z,21.42
2023-02-15T14:10:32.303Z,20.58
2023-02-15T14:13:24.766Z,20.13
2023-02-15T14:18:35.608Z,24.75
2023-02-15T14:21:15.861Z,20.05
2023-02-15T14:24:27.393Z,20.30
2023-02-15T14:27:06.763Z,22.15
2023-02-15T14:29:54.512Z,22.02
2023-02-15T14:32:47.143Z,22.25
2023-02-15T14:35:17.447Z,19.45
2023-02-15T14:37:50.881Z,21.45
2023-02-15T14:41:02.095Z,19.90
2023-02-15T14:43:46.769Z,23.95
2023-02-15T14:46:20.049Z,23.92
2023-02-15T14:48:54.361Z,24.45
2023-02-15T14:51:47.031Z,23.65
2023-02-15T14:54:23.054Z,26.80
2023-02-15T14:57:02.340Z,23.20
2023-02-15T14:59:44.412Z,24.02
2023-02-15T15:02:18.905Z,27.17
2023-02-15T15:05:02.215Z,23.48
2023-02-15T15:07:39.463Z,24.02
2023-02-15T15:10:17.911Z,23.63
2023-02-15T15:12:49.665Z,23.00
2023-02-15T15:15:28.950Z,26.50
2023-02-15T15:18:09.226Z,24.05
2023-02-15T15:20:45.760Z,23.08
2023-02-15T15:23:16.005Z,24.08
2023-02-15T15:26:19.102Z,22.10
2023-02-15T15:28:46.378Z,24.63
2023-02-15T15:31:21.643Z,25.75
2023-02-15T15:34:26.684Z,24.35
2023-02-15T15:37:21.259Z,25.20
2023-02-15T15:40:30.716Z,24.77
2023-02-15T15:43:34.088Z,28.13
2023-02-15T15:46:53.234Z,26.15
2023-02-15T15:49:22.704Z,24.35
2023-02-15T15:51:50.486Z,28.05
2023-02-15T15:54:22.910Z,27.52
2023-02-15T15:57:03.326Z,33.67
2023-02-15T15:59:35.183Z,26.40
2023-02-15T16:02:07.410Z,29.52
2023-02-15T16:04:35.956Z,29.58
2023-02-15T16:07:18.248Z,29.70
2023-02-15T16:10:06.341Z,30.63
2023-02-15T16:12:39.522Z,30.00
2023-02-15T16:15:45.797Z,29.88
2023-02-15T16:18:18.295Z,30.13
2023-02-15T16:21:03.180Z,34.25
2023-02-15T16:23:33.558Z,37.15
2023-02-15T16:26:14.176Z,34.45
2023-02-15T16:28:52.086Z,32.70
2023-02-15T16:31:21.221Z,32.75
2023-02-15T16:33:51.549Z,32.70
2023-02-15T16:36:30.854Z,36.67
2023-02-15T16:39:11.567Z,35.30
2023-02-15T16:41:41.197Z,34.50
2023-02-15T16:44:21.523Z,38.33
2023-02-15T16:46:55.375Z,37.53
2023-02-15T16:49:26.418Z,40.60
2023-02-15T16:52:28.294Z,38.85
2023-02-15T16:55:05.791Z,40.53
2023-02-15T16:57:38.049Z,41.63
2023-02-15T17:00:09.615Z,44.50
2023-02-15T17:02:55.674Z,44.60
2023-02-15T17:05:58.778Z,45.45
2023-02-15T17:08:35.693Z,45.63
2023-02-15T17:11:17.586Z,47.70
2023-02-15T17:16:57.890Z,45.78
2023-02-15T17:19:54.319Z,50.90
2023-02-15T17:22:25.954Z,53.28
2023-02-15T17:25:04.180Z,52.10
2023-02-15T17:27:34.410Z,55.40
2023-02-15T17:30:20.080Z,52.45
2023-02-15T17:33:00.575Z,57.67
2023-02-15T17:35:33.380Z,55.50
2023-02-15T17:38:21.954Z,58.65
2023-02-15T17:40:49.274Z,56.00
2023-02-15T17:43:16.489Z,52.88
2023-02-15T17:45:52.136Z,61.92
2023-02-15T17:48:32.179Z,54.03
2023-02-15T17:51:02.769Z,56.33
2023-02-15T17:53:30.663Z,56.88
2023-02-15T17:55:58.092Z,80.43
2023-02-15T17:58:25.487Z,60.22
2023-02-15T18:01:16.495Z,57.85
2023-02-15T18:04:03.923Z,56.17
2023-02-15T18:06:49.698Z,52.70
2023-02-15T18:09:37.934Z,58.63
2023-02-15T18:12:27.759Z,53.88
2023-02-15T18:14:56.473Z,59.20
2023-02-15T18:17:34.778Z,52.85
2023-02-15T18:20:07.625Z,56.92
2023-02-15T18:22:35.267Z,57.38
2023-02-15T18:25:02.738Z,67.60
2023-02-15T18:27:33.733Z,58.25
2023-02-15T18:30:01.138Z,62.85
2023-02-15T18:32:34.442Z,56.85
2023-02-15T18:35:04.746Z,61.08
2023-02-15T18:37:33.457Z,55.63
2023-02-15T18:40:04.118Z,58.70
2023-02-15T18:42:44.682Z,61.80
2023-02-15T18:45:19.519Z,61.45
2023-02-15T18:47:47.909Z,59.17
2023-02-15T18:50:17.275Z,65.10
2023-02-15T18:52:47.682Z,64.93
2023-02-15T18:55:21.177Z,65.38
2023-02-15T18:57:51.139Z,64.25
2023-02-15T19:00:28.431Z,64.20
2023-02-15T19:02:56.712Z,61.67
2023-02-15T19:05:27.700Z,63.40
2023-02-15T19:07:55.988Z,80.40
2023-02-15T19:10:26.277Z,88.68
2023-02-15T19:12:55.882Z,76.40
2023-02-15T19:15:25.896Z,57.67
2023-02-15T19:17:55.105Z,59.78
2023-02-15T19:20:28.168Z,57.92
2023-02-15T19:22:57.895Z,61.47
2023-02-15T19:25:28.160Z,59.78
2023-02-15T19:27:56.069Z,62.08
2023-02-15T19:30:30.086Z,63.60
2023-02-15T19:32:58.907Z,60.00
2023-02-15T19:35:30.369Z,60.42
2023-02-15T19:38:00.602Z,59.63
2023-02-15T19:40:31.631Z,54.65
2023-02-15T19:42:58.936Z,58.20
2023-02-15T19:45:29.143Z,60.05
2023-02-15T19:47:56.692Z,55.95
2023-02-15T19:50:30.137Z,58.38
2023-02-15T19:52:57.882Z,61.08
2023-02-15T19:55:30.862Z,57.70
2023-02-15T19:57:59.793Z,56.20
2023-02-15T20:00:33.800Z,60.22
2023-02-15T20:03:01.577Z,55.53
2023-02-15T20:05:30.452Z,62.88
2023-02-15T20:07:58.429Z,56.38
2023-02-15T20:10:28.990Z,56.70
2023-02-15T20:12:56.944Z,56.20
2023-02-15T20:15:29.720Z,56.47
2023-02-15T20:17:58.478Z,58.70
2023-02-15T20:20:45.363Z,54.67
2023-02-15T20:23:31.539Z,60.95
2023-02-15T20:26:00.997Z,57.78
2023-02-15T20:28:31.017Z,54.30
2023-02-15T20:30:59.267Z,51.20
2023-02-15T20:33:26.673Z,60.70
2023-02-15T20:35:53.986Z,56.90
2023-02-15T20:38:25.668Z,57.47
2023-02-15T20:41:12.200Z,58.15
2023-02-15T20:43:40.025Z,59.75
2023-02-15T20:46:08.815Z,57.22
2023-02-15T20:48:36.123Z,58.85
2023-02-15T20:51:04.223Z,54.13
2023-02-15T20:53:31.871Z,58.42
2023-02-15T20:55:59.147Z,54.38
2023-02-15T20:58:29.964Z,55.63
2023-02-15T21:00:58.964Z,59.92
2023-02-15T21:03:30.866Z,55.67
2023-02-15T21:05:59.249Z,52.05
2023-02-15T21:08:27.321Z,57.33
2023-02-15T21:10:55.151Z,52.83
2023-02-15T21:13:26.573Z,53.90
2023-02-15T21:15:55.406Z,63.78
2023-02-15T21:18:25.615Z,61.20
2023-02-15T21:20:55.179Z,56.00
2023-02-15T21:23:27.095Z,57.70
2023-02-15T21:28:25.439Z,61.10
2023-02-15T21:30:54.078Z,57.53
2023-02-15T21:33:21.442Z,56.15
2023-02-15T21:35:52.040Z,54.47
2023-02-15T21:38:22.735Z,56.42
2023-02-15T21:40:50.780Z,57.80
2023-02-15T21:43:40.827Z,53.05
2023-02-15T21:46:38.310Z,59.47
2023-02-15T21:49:08.614Z,54.13
2023-02-15T21:51:54.126Z,55.45
2023-02-15T21:54:21.628Z,55.40
2023-02-15T21:56:51.046Z,54.03
2023-02-15T21:59:18.775Z,53.35
2023-02-15T22:01:49.737Z,50.83
2023-02-15T22:04:28.512Z,51.65
2023-02-15T22:06:56.449Z,48.25
2023-02-15T22:09:26.883Z,54.97
2023-02-15T22:11:55.120Z,52.85
2023-02-15T22:14:35.500Z,54.15
2023-02-15T22:17:03.858Z,52.05
2023-02-15T22:19:31.141Z,62.75
2023-02-15T22:21:58.511Z,59.70
2023-02-15T22:24:27.016Z,55.58
2023-02-15T22:26:54.355Z,57.65
2023-02-15T22:29:21.913Z,54.92
2023-02-15T22:31:49.785Z,53.72
2023-02-15T22:34:26.256Z,58.25
2023-02-15T22:36:54.250Z,68.00
2023-02-15T22:39:24.949Z,61.83
2023-02-15T22:41:53.329Z,59.15
2023-02-15T22:44:25.378Z,59.10
2023-02-15T22:46:53.211Z,58.72
2023-02-15T22:49:20.649Z,60.25
2023-02-15T22:51:49.420Z,58.10
2023-02-15T22:54:18.262Z,59.58
2023-02-15T22:56:53.621Z,54.47
2023-02-15T22:59:30.078Z,54.90
2023-02-15T23:01:57.721Z,57.63
2023-02-15T23:04:27.672Z,57.10
2023-02-15T23:06:58.275Z,56.42
2023-02-15T23:09:25.523Z,55.58
2023-02-15T23:11:53.920Z,50.40
2023-02-15T23:14:36.438Z,56.13
2023-02-15T23:17:03.731Z,54.47
2023-02-15T23:19:30.926Z,58.65
2023-02-15T23:21:58.296Z,55.83
2023-02-15T23:24:30.634Z,54.78
2023-02-15T23:27:18.233Z,56.63
2023-02-15T23:29:45.564Z,50.33
2023-02-15T23:32:14.542Z,53.97
2023-02-15T23:34:42.614Z,53.40
2023-02-15T23:37:14.405Z,54.60
2023-02-15T23:40:00.068Z,52.92
2023-02-15T23:42:30.591Z,50.05
2023-02-15T23:44:57.946Z,58.97
2023-02-15T23:47:50.276Z,53.83
2023-02-15T23:50:24.334Z,54.78
2023-02-15T23:52:53.384Z,53.28
2023-02-15T23:55:22.048Z,52.45
2023-02-15T23:57:49.977Z,62.17
